DRZA/AJY METAR and TAF weather

Enter ICAO airport designator
Station Type Date Time Source
DRZA METAR 2021/07/27 18:00 UTC NOAA

DRZA 271800Z 16010KT 9999 BKN040CB 33/20 Q1010


Station Type Date Time Source
DRZA Decoded METAR 2021/07/27 18:00 UTC NOAA

Agadez, Niger (DRZA) 16-58N 007-59E 502M
Jul 27, 2021 - 02:00 PM EDT / 2021.07.27 1800 UTC
Wind: from the SSE (160 degrees) at 12 MPH (10 KT):0
Visibility: greater than 7 mile(s):0
Sky conditions: mostly cloudy
Weather: Cumulonimbus clouds observed
Temperature: 91 F (33 C)
Heat index: 94.6 F (34.8 C):1
Dew Point: 68 F (20 C)
Relative Humidity: 46%
Pressure (altimeter): 29.83 in. Hg (1010 hPa)
ob: DRZA 271800Z 16010KT 9999 BKN040CB 33/20 Q1010
cycle: 18

Station Type Date Time Source
DRZA TAF 2021/07/27 18:24 UTC NOAA

TAF DRZA 271700Z 2718/2818 24010KT CAVOK

Example: see airport list